createdAt,value
2023-02-04T06:18:42.540Z,-1.33
2023-02-04T06:28:42.649Z,-1.81
2023-02-04T06:38:42.656Z,-2.02
2023-02-04T06:48:42.740Z,-1.91
2023-02-04T06:58:42.789Z,-2.03
2023-02-04T07:08:42.551Z,-2.01
2023-02-04T07:18:42.647Z,-1.90
2023-02-04T07:28:42.752Z,-1.68
2023-02-04T07:38:42.607Z,-0.85
2023-02-04T07:48:42.622Z,0.95
2023-02-04T07:58:42.693Z,-0.17
2023-02-04T08:08:42.607Z,-0.31
2023-02-04T08:18:42.696Z,-0.08
2023-02-04T08:28:42.731Z,2.18
2023-02-04T08:38:42.557Z,3.08
2023-02-04T08:48:42.670Z,3.71
2023-02-04T08:58:42.628Z,1.75
2023-02-04T09:08:42.574Z,1.72
2023-02-04T09:18:42.506Z,2.38
2023-02-04T09:28:42.651Z,3.23
2023-02-04T09:38:42.822Z,3.98
2023-02-04T09:48:42.781Z,3.37
2023-02-04T09:58:42.957Z,2.95
2023-02-04T10:08:42.583Z,3.17
2023-02-04T10:18:42.503Z,3.06
2023-02-04T10:28:42.671Z,3.36
2023-02-04T10:38:42.573Z,3.39
2023-02-04T10:48:42.662Z,3.84
2023-02-04T10:58:42.707Z,4.78
2023-02-04T11:08:42.537Z,4.06
2023-02-04T11:18:42.637Z,3.46
2023-02-04T11:28:42.605Z,3.69
2023-02-04T11:38:42.502Z,3.69
2023-02-04T11:48:42.494Z,3.99
2023-02-04T11:58:42.584Z,4.37
2023-02-04T12:08:42.663Z,3.54
2023-02-04T12:18:42.693Z,3.71
2023-02-04T12:28:42.660Z,4.40
2023-02-04T12:38:42.539Z,3.93
2023-02-04T12:48:42.713Z,4.16
2023-02-04T12:58:42.634Z,4.52
2023-02-04T13:08:42.497Z,4.72
2023-02-04T13:18:42.829Z,5.76
2023-02-04T13:28:42.625Z,5.06
2023-02-04T13:38:42.724Z,6.24
2023-02-04T13:48:42.822Z,5.48
2023-02-04T13:58:42.560Z,5.03
2023-02-04T14:08:42.788Z,5.46
2023-02-04T14:18:42.702Z,5.56
2023-02-04T14:28:42.519Z,4.96
2023-02-04T14:38:42.568Z,4.96
2023-02-04T14:48:42.652Z,5.42
2023-02-04T14:58:42.591Z,5.80
2023-02-04T15:08:42.577Z,4.53
2023-02-04T15:18:42.512Z,3.75
2023-02-04T15:28:42.666Z,3.28
2023-02-04T15:38:42.708Z,3.17
2023-02-04T15:48:42.572Z,3.15
2023-02-04T15:58:42.753Z,2.88
2023-02-04T16:08:42.699Z,1.88
2023-02-04T16:18:42.769Z,1.04
2023-02-04T16:28:42.859Z,0.94
2023-02-04T16:38:42.616Z,0.75
2023-02-04T16:48:42.754Z,0.84
2023-02-04T16:58:42.918Z,1.23
2023-02-04T17:08:42.672Z,0.68
2023-02-04T17:18:42.774Z,0.67
2023-02-04T17:28:42.648Z,0.75
2023-02-04T17:38:42.779Z,0.99
2023-02-04T17:48:42.624Z,0.18
2023-02-04T17:58:42.696Z,-0.36
2023-02-04T18:08:42.707Z,-0.57
2023-02-04T18:18:42.828Z,-0.35
2023-02-04T18:28:42.731Z,-0.71
2023-02-04T18:38:42.915Z,-1.25
2023-02-04T18:48:42.652Z,-1.21
2023-02-04T18:58:42.821Z,-1.30
2023-02-04T19:08:42.806Z,-1.72
2023-02-04T19:18:42.702Z,-1.04
